Time;durP1;ratioP1;P1;durP2;ratioP2;P2;SDS_P1;SDS_P2;PMS_P1;PMS_P2;Temp;Humidity;BMP_temperature;BMP_pressure;BME280_temperature;BME280_humidity;BME280_pressure;Samples;Min_cycle;Max_cycle;Signal;HPM_P1;HPM_P2
2022/01/04 00:00:07;;;;;;;11.70;6.10;;;;;;;5.87;87.34;99328.82;84572;1332;22671;-70
2022/01/04 00:02:35;;;;;;;12.10;5.10;;;;;;;5.88;87.31;99323.75;84548;1331;25475;-71
2022/01/04 00:04:47;;;;;;;11.80;5.80;;;;;;;5.92;87.30;99322.10;84563;1331;23823;-71
2022/01/04 00:06:59;;;;;;;15.30;5.70;;;;;;;5.95;87.41;99321.63;84572;1331;22645;-70
2022/01/04 00:09:11;;;;;;;13.60;6.70;;;;;;;5.97;87.35;99320.02;84543;1330;22870;-71
2022/01/04 00:11:32;;;;;;;16.10;6.70;;;;;;;5.98;87.42;99324.69;84575;1334;22586;-74
2022/01/04 00:13:41;;;;;;;17.80;6.90;;;;;;;5.96;87.39;99324.55;84567;1332;22604;-75
2022/01/04 00:15:54;;;;;;;15.00;6.10;;;;;;;5.94;87.32;99321.33;84545;1330;25445;-71
2022/01/04 00:18:03;;;;;;;11.30;5.30;;;;;;;5.94;87.21;99318.55;84557;1331;22763;-71
2022/01/04 00:20:15;;;;;;;13.10;5.90;;;;;;;5.93;86.84;99317.73;84571;1331;22593;-71
2022/01/04 00:22:25;;;;;;;14.80;5.90;;;;;;;5.93;87.00;99312.36;84553;1332;25454;-70
2022/01/04 00:24:37;;;;;;;13.80;5.70;;;;;;;5.93;87.17;99313.20;84566;1333;22690;-73
2022/01/04 00:26:47;;;;;;;15.20;5.90;;;;;;;5.93;87.13;99316.33;84568;1332;25460;-74
2022/01/04 00:28:59;;;;;;;9.50;6.20;;;;;;;5.95;86.90;99318.88;84558;1331;25458;-75
2022/01/04 00:31:08;;;;;;;17.40;6.50;;;;;;;5.94;87.00;99317.49;84569;1328;22726;-75
2022/01/04 00:33:20;;;;;;;13.00;6.00;;;;;;;5.94;86.91;99314.40;84554;1332;25709;-74
2022/01/04 00:35:29;;;;;;;11.30;5.90;;;;;;;5.96;86.83;99316.77;84567;1330;22603;-74
2022/01/04 00:37:42;;;;;;;9.80;5.10;;;;;;;5.98;87.01;99318.95;84558;1330;22621;-74
2022/01/04 00:39:54;;;;;;;9.80;6.00;;;;;;;5.97;86.92;99316.56;84564;1331;22586;-74
2022/01/04 00:42:03;;;;;;;9.00;6.00;;;;;;;5.95;86.95;99315.55;84554;1330;22736;-74
2022/01/04 00:44:12;;;;;;;13.80;5.40;;;;;;;5.96;86.95;99315.89;84557;1333;22630;-75
2022/01/04 00:46:24;;;;;;;15.50;6.60;;;;;;;5.96;87.04;99311.92;84599;1333;22619;-70
2022/01/04 00:51:02;;;;;;;11.70;6.00;;;;;;;5.92;86.72;99304.77;84571;1326;22815;-71
2022/01/04 00:53:10;;;;;;;10.00;5.50;;;;;;;5.91;86.67;99300.64;84576;1331;22656;-71
2022/01/04 00:55:22;;;;;;;11.20;4.20;;;;;;;5.91;86.77;99296.66;84550;1332;25616;-74
2022/01/04 00:57:31;;;;;;;11.30;5.50;;;;;;;5.91;86.68;99294.73;84567;1331;22603;-74
2022/01/04 00:59:40;;;;;;;13.00;5.00;;;;;;;5.90;86.76;99292.71;84586;1332;22886;-71
2022/01/04 01:01:49;;;;;;;9.50;4.70;;;;;;;5.87;86.56;99287.45;84564;1333;22623;-71
2022/01/04 01:03:58;;;;;;;12.20;6.80;;;;;;;5.83;86.41;99284.48;84558;1331;22815;-70
2022/01/04 01:06:09;;;;;;;18.90;5.40;;;;;;;5.78;86.68;99277.93;84585;1331;26050;-70
2022/01/04 01:08:18;;;;;;;12.20;5.30;;;;;;;5.72;86.65;99278.82;84575;1330;25599;-70
2022/01/04 01:10:41;;;;;;;11.20;4.30;;;;;;;5.67;86.42;99277.80;84581;1330;22616;-75
2022/01/04 01:12:50;;;;;;;10.90;4.80;;;;;;;5.59;86.40;99278.56;84571;1331;22609;-74
2022/01/04 01:14:59;;;;;;;13.80;5.70;;;;;;;5.53;86.44;99279.98;84569;1334;23822;-70
2022/01/04 01:17:11;;;;;;;9.80;4.40;;;;;;;5.48;86.80;99279.85;84573;1332;22640;-71
2022/01/04 01:19:22;;;;;;;14.20;5.40;;;;;;;5.41;86.61;99278.86;84562;1332;22905;-70
2022/01/04 01:21:34;;;;;;;10.90;4.40;;;;;;;5.35;86.79;99275.64;84567;1331;24279;-71
2022/01/04 01:23:43;;;;;;;10.70;4.40;;;;;;;5.26;86.62;99274.89;84574;1330;22606;-71
2022/01/04 01:25:52;;;;;;;9.40;4.10;;;;;;;5.19;86.84;99273.90;84578;1327;22623;-70
2022/01/04 01:28:04;;;;;;;9.00;3.40;;;;;;;5.15;87.02;99269.04;84566;1330;22620;-70
2022/01/04 01:30:15;;;;;;;11.00;4.00;;;;;;;5.13;87.09;99272.20;84583;1329;22600;-72
2022/01/04 01:32:23;;;;;;;10.60;3.50;;;;;;;5.12;87.25;99264.97;84542;1332;22599;-70
2022/01/04 01:34:35;;;;;;;9.60;4.70;;;;;;;5.10;87.22;99259.34;84588;1331;24274;-72
2022/01/04 01:36:44;;;;;;;10.60;4.50;;;;;;;5.08;87.28;99259.08;84569;1331;25308;-74
2022/01/04 01:38:53;;;;;;;9.70;4.20;;;;;;;5.05;87.36;99259.34;84535;1329;22758;-75
2022/01/04 01:41:02;;;;;;;9.40;3.50;;;;;;;4.99;87.25;99259.54;84604;1331;22599;-74
2022/01/04 01:43:11;;;;;;;6.10;3.70;;;;;;;4.95;87.33;99259.15;84570;1332;22598;-75
2022/01/04 01:45:21;;;;;;;7.10;4.20;;;;;;;4.93;87.42;99262.69;84531;1332;22622;-74
2022/01/04 01:47:30;;;;;;;12.10;3.90;;;;;;;4.90;87.51;99260.68;84583;1329;22596;-74
2022/01/04 01:49:39;;;;;;;9.40;4.30;;;;;;;4.86;87.42;99262.72;84543;1331;22617;-74
2022/01/04 01:51:48;;;;;;;14.90;5.70;;;;;;;4.83;87.42;99262.13;84571;1330;22600;-75
2022/01/04 01:53:57;;;;;;;11.80;4.20;;;;;;;4.82;87.86;99259.40;84553;1333;25632;-75
2022/01/04 01:56:06;;;;;;;11.40;4.50;;;;;;;4.81;87.96;99257.02;84556;1324;22803;-75
2022/01/04 01:58:15;;;;;;;11.00;4.40;;;;;;;4.76;87.54;99258.22;84562;1335;22584;-75
2022/01/04 02:00:26;;;;;;;13.80;5.30;;;;;;;4.74;87.90;99254.67;84564;1331;25483;-71
2022/01/04 02:02:35;;;;;;;8.70;4.30;;;;;;;4.72;87.82;99251.62;84560;1330;22599;-70
2022/01/04 02:04:44;;;;;;;9.70;4.90;;;;;;;4.74;88.00;99252.25;84594;1333;22732;-71
2022/01/04 02:06:53;;;;;;;11.30;4.80;;;;;;;4.79;88.22;99250.35;84561;1333;24267;-70
2022/01/04 02:09:02;;;;;;;14.20;5.20;;;;;;;4.86;88.38;99251.15;84558;1329;22603;-70
2022/01/04 02:11:11;;;;;;;14.10;5.20;;;;;;;4.93;88.48;99252.81;84569;1329;24274;-71
2022/01/04 02:13:20;;;;;;;14.80;6.30;;;;;;;5.00;88.64;99257.60;84574;1330;22614;-69
2022/01/04 02:15:31;;;;;;;11.50;4.90;;;;;;;5.04;88.51;99251.25;84556;1330;22987;-74
2022/01/04 02:17:39;;;;;;;10.10;5.10;;;;;;;5.09;88.50;99248.98;84579;1330;22613;-74
2022/01/04 02:19:48;;;;;;;14.00;5.00;;;;;;;5.14;88.25;99244.34;84571;1326;22603;-71
2022/01/04 02:22:00;;;;;;;12.30;5.20;;;;;;;5.15;88.21;99244.27;84553;1328;22611;-70
2022/01/04 02:24:10;;;;;;;12.10;6.00;;;;;;;5.17;88.09;99240.77;84585;1330;23863;-70
2022/01/04 02:26:22;;;;;;;10.60;5.20;;;;;;;5.18;88.23;99238.67;84585;1328;22608;-75
2022/01/04 02:28:31;;;;;;;12.90;5.30;;;;;;;5.20;87.89;99237.23;84550;1331;22608;-74
2022/01/04 02:30:42;;;;;;;15.80;7.30;;;;;;;5.20;88.15;99237.40;84591;1330;23944;-70
2022/01/04 02:32:51;;;;;;;16.70;5.50;;;;;;;5.20;88.26;99238.09;84563;1335;26062;-70
2022/01/04 02:35:03;;;;;;;14.90;4.90;;;;;;;5.21;88.09;99237.88;84570;1327;22821;-75
2022/01/04 02:37:15;;;;;;;11.00;4.80;;;;;;;5.23;87.77;99235.77;84561;1329;22630;-74
2022/01/04 02:39:25;;;;;;;9.10;4.30;;;;;;;5.26;87.90;99234.79;84559;1326;25307;-73
2022/01/04 02:41:34;;;;;;;10.80;5.20;;;;;;;5.29;87.90;99234.66;84558;1329;23134;-74
2022/01/04 02:43:45;;;;;;;16.70;6.30;;;;;;;5.31;87.84;99232.52;84551;1329;24081;-74
2022/01/04 02:45:54;;;;;;;11.30;4.80;;;;;;;5.32;87.80;99230.40;84600;1330;22646;-71
2022/01/04 02:48:06;;;;;;;10.50;5.40;;;;;;;5.33;87.59;99230.20;84560;1330;22624;-71
2022/01/04 02:50:15;;;;;;;12.70;5.30;;;;;;;5.29;87.39;99222.56;84566;1334;23919;-71
2022/01/04 02:52:24;;;;;;;10.70;4.90;;;;;;;5.23;87.19;99216.90;84568;1330;22604;-72
2022/01/04 02:54:33;;;;;;;12.80;4.50;;;;;;;5.18;87.04;99217.23;84545;1331;26512;-72
2022/01/04 02:56:42;;;;;;;8.50;4.60;;;;;;;5.12;87.04;99215.52;84573;1332;23895;-70
2022/01/04 02:58:50;;;;;;;11.30;4.70;;;;;;;5.08;87.29;99211.89;84574;1333;22626;-70
2022/01/04 03:00:59;;;;;;;11.70;5.20;;;;;;;5.03;87.14;99205.31;84512;1330;23992;-70
2022/01/04 03:03:08;;;;;;;15.40;4.50;;;;;;;4.97;86.94;99204.13;84575;1329;23050;-71
2022/01/04 03:05:20;;;;;;;10.50;4.80;;;;;;;4.92;87.00;99201.35;84566;1330;22605;-74
2022/01/04 03:07:28;;;;;;;11.30;5.60;;;;;;;4.86;87.13;99200.36;84576;1330;22851;-75
2022/01/04 03:09:37;;;;;;;8.40;5.10;;;;;;;4.81;87.31;99202.77;83875;1330;1003101;-74
2022/01/04 03:11:49;;;;;;;11.40;4.20;;;;;;;4.77;87.23;99201.69;84567;1331;22592;-74
2022/01/04 03:13:58;;;;;;;9.80;4.20;;;;;;;4.74;87.17;99198.70;84562;1326;25457;-75
2022/01/04 03:16:09;;;;;;;10.30;4.50;;;;;;;4.71;87.15;99192.55;84565;1330;23941;-71
2022/01/04 03:18:18;;;;;;;8.20;5.30;;;;;;;4.69;87.36;99188.48;84552;1331;22599;-70
2022/01/04 03:20:29;;;;;;;9.10;4.10;;;;;;;4.66;86.99;99188.21;84579;1326;22619;-70
2022/01/04 03:22:38;;;;;;;10.50;5.40;;;;;;;4.64;87.32;99190.73;84561;1331;23896;-70
2022/01/04 03:24:50;;;;;;;11.60;4.90;;;;;;;4.63;87.42;99192.98;84593;1330;22613;-71
2022/01/04 03:26:59;;;;;;;10.80;5.20;;;;;;;4.62;87.54;99188.52;84556;1331;25450;-70
2022/01/04 03:29:09;;;;;;;15.90;6.80;;;;;;;4.63;87.64;99183.13;84568;1330;23888;-71
2022/01/04 03:31:21;;;;;;;14.90;5.20;;;;;;;4.65;87.80;99184.80;84582;1327;22614;-70
2022/01/04 03:33:29;;;;;;;10.30;5.70;;;;;;;4.66;87.54;99184.08;84559;1330;23980;-71
2022/01/04 03:35:38;;;;;;;15.70;5.00;;;;;;;4.67;87.46;99187.33;84589;1331;22598;-71
2022/01/04 03:37:47;;;;;;;13.50;5.10;;;;;;;4.66;87.52;99185.30;84578;1331;25331;-72
2022/01/04 03:39:56;;;;;;;12.20;4.90;;;;;;;4.63;87.38;99179.88;84586;1332;22600;-74
2022/01/04 03:42:05;;;;;;;11.80;4.70;;;;;;;4.58;87.60;99174.84;84579;1333;22642;-74
2022/01/04 03:44:19;;;;;;;10.50;4.70;;;;;;;4.56;87.50;99170.60;84560;1333;22593;-74
2022/01/04 03:46:31;;;;;;;8.10;3.90;;;;;;;4.55;87.42;99170.98;83851;1331;1002499;-74
2022/01/04 03:48:40;;;;;;;8.90;4.80;;;;;;;4.53;87.28;99170.52;84547;1330;22600;-74
2022/01/04 03:50:51;;;;;;;11.60;4.30;;;;;;;4.54;87.65;99170.17;84599;1330;22626;-74
2022/01/04 03:53:00;;;;;;;11.70;4.60;;;;;;;4.56;87.76;99171.09;84560;1328;22619;-75
2022/01/04 03:55:10;;;;;;;8.80;4.50;;;;;;;4.59;87.66;99167.89;84562;1332;22609;-71
2022/01/04 03:57:22;;;;;;;11.30;5.30;;;;;;;4.61;87.70;99165.94;84558;1333;25378;-71
2022/01/04 03:59:36;;;;;;;14.60;5.20;;;;;;;4.58;87.36;99166.56;84565;1333;25450;-73
2022/01/04 04:01:49;;;;;;;9.90;5.00;;;;;;;4.54;87.60;99162.37;84563;1331;23971;-71
2022/01/04 04:04:01;;;;;;;14.90;5.50;;;;;;;4.52;87.42;99160.36;84559;1335;22567;-71
2022/01/04 04:06:10;;;;;;;12.70;4.00;;;;;;;4.50;87.42;99154.90;84558;1331;22616;-73
2022/01/04 04:08:22;;;;;;;9.80;4.20;;;;;;;4.48;87.33;99150.32;84561;1332;22593;-75
2022/01/04 04:10:30;;;;;;;8.80;4.30;;;;;;;4.45;87.32;99145.74;84593;1331;24248;-71
2022/01/04 04:12:39;;;;;;;9.10;4.30;;;;;;;4.43;87.58;99143.73;84558;1328;24352;-72
2022/01/04 04:14:48;;;;;;;10.70;4.60;;;;;;;4.41;87.54;99147.26;84569;1331;22614;-74
2022/01/04 04:16:57;;;;;;;8.20;4.50;;;;;;;4.36;87.36;99150.85;84576;1327;22604;-74
2022/01/04 04:19:05;;;;;;;8.90;4.40;;;;;;;4.31;87.29;99151.02;84568;1327;22615;-74
2022/01/04 04:21:14;;;;;;;12.70;4.60;;;;;;;4.26;87.31;99145.84;84583;1335;24004;-71
2022/01/04 04:23:26;;;;;;;7.70;3.80;;;;;;;4.22;87.24;99149.93;84565;1333;22596;-70
2022/01/04 04:25:34;;;;;;;10.30;4.20;;;;;;;4.20;87.36;99152.77;84598;1328;23812;-71
2022/01/04 04:27:46;;;;;;;6.60;4.10;;;;;;;4.19;87.39;99153.13;84539;1331;22605;-71
2022/01/04 04:29:58;;;;;;;7.40;4.10;;;;;;;4.19;87.59;99156.60;84579;1329;22637;-71
2022/01/04 04:32:09;;;;;;;7.60;4.30;;;;;;;4.20;87.64;99153.98;84567;1332;22689;-71
2022/01/04 04:34:21;;;;;;;6.20;3.40;;;;;;;4.23;87.85;99151.45;84572;1328;22680;-71
2022/01/04 04:36:31;;;;;;;7.00;4.30;;;;;;;4.24;87.76;99158.17;84549;1330;24248;-70
2022/01/04 04:38:39;;;;;;;9.00;4.50;;;;;;;4.22;87.80;99158.40;84549;1332;22550;-70
2022/01/04 04:40:48;;;;;;;10.60;4.10;;;;;;;4.23;87.70;99158.70;84552;1331;22813;-71
2022/01/04 04:42:57;;;;;;;7.50;3.50;;;;;;;4.24;87.57;99148.15;84571;1335;22599;-71
2022/01/04 04:45:07;;;;;;;9.30;4.40;;;;;;;4.26;87.65;99148.44;84609;1332;22706;-74
2022/01/04 04:47:16;;;;;;;6.70;3.50;;;;;;;4.28;87.72;99144.55;84577;1330;23985;-75
2022/01/04 04:49:25;;;;;;;9.00;4.20;;;;;;;4.29;87.52;99140.55;84580;1330;22600;-74
2022/01/04 04:51:34;;;;;;;9.60;4.60;;;;;;;4.27;87.62;99142.86;84416;1332;206699;-71
2022/01/04 04:53:43;;;;;;;9.30;4.10;;;;;;;4.25;87.71;99137.76;84554;1332;23906;-70
2022/01/04 04:55:52;;;;;;;13.20;4.40;;;;;;;4.25;87.82;99127.77;84557;1333;25324;-73
2022/01/04 04:58:01;;;;;;;11.20;5.10;;;;;;;4.22;87.58;99130.77;84553;1333;22596;-75
2022/01/04 05:00:15;;;;;;;9.40;4.70;;;;;;;4.19;87.71;99135.54;84551;1332;23939;-71
2022/01/04 05:02:23;;;;;;;7.50;4.70;;;;;;;4.20;87.79;99137.41;84590;1332;25340;-71
2022/01/04 05:04:33;;;;;;;9.70;4.40;;;;;;;4.23;87.81;99127.81;84548;1331;25529;-73
2022/01/04 05:06:45;;;;;;;8.40;4.20;;;;;;;4.29;88.35;99126.42;84581;1333;22826;-74
2022/01/04 05:08:54;;;;;;;10.60;5.50;;;;;;;4.35;88.30;99129.48;84550;1328;22653;-74
2022/01/04 05:11:03;;;;;;;8.50;4.50;;;;;;;4.41;88.41;99128.95;84561;1330;22588;-74
2022/01/04 05:13:15;;;;;;;10.30;4.50;;;;;;;4.47;88.52;99118.91;84547;1331;22900;-74
2022/01/04 05:15:24;;;;;;;10.40;5.20;;;;;;;4.53;88.47;99121.32;84578;1330;23839;-70
2022/01/04 05:17:33;;;;;;;9.90;5.50;;;;;;;4.59;88.48;99122.66;84573;1331;22600;-71
2022/01/04 05:19:44;;;;;;;13.70;5.60;;;;;;;4.65;88.32;99121.41;84552;1331;22766;-75
2022/01/04 05:21:56;;;;;;;10.90;5.10;;;;;;;4.71;88.31;99122.76;84568;1331;22625;-75
2022/01/04 05:24:06;;;;;;;8.80;4.40;;;;;;;4.78;88.39;99123.23;84559;1328;26071;-74
2022/01/04 05:26:15;;;;;;;10.10;4.50;;;;;;;4.84;88.39;99124.73;84563;1332;23937;-71
2022/01/04 05:28:27;;;;;;;7.40;4.50;;;;;;;4.88;88.48;99129.95;84566;1331;24363;-71
2022/01/04 05:30:39;;;;;;;12.40;4.60;;;;;;;4.91;88.61;99126.05;84565;1332;25436;-70
2022/01/04 05:32:51;;;;;;;7.60;4.50;;;;;;;4.95;88.54;99121.76;84569;1331;24109;-71
2022/01/04 05:35:00;;;;;;;12.50;5.10;;;;;;;5.00;88.72;99125.23;84568;1330;22616;-71
2022/01/04 05:37:09;;;;;;;9.60;6.20;;;;;;;5.05;88.44;99117.98;84565;1328;22594;-71
2022/01/04 05:39:19;;;;;;;12.20;4.90;;;;;;;5.05;88.36;99110.84;84573;1332;22633;-71
2022/01/04 05:41:28;;;;;;;11.40;5.10;;;;;;;5.07;88.42;99110.61;84542;1330;22667;-71
2022/01/04 05:43:37;;;;;;;9.70;5.20;;;;;;;5.06;88.45;99106.30;84570;1327;22608;-72
2022/01/04 05:45:46;;;;;;;10.80;5.20;;;;;;;5.05;88.30;99107.05;84581;1330;22829;-75
2022/01/04 05:47:54;;;;;;;10.70;5.50;;;;;;;5.03;88.34;99110.60;84593;1335;22691;-74
2022/01/04 05:50:05;;;;;;;12.30;4.70;;;;;;;5.01;87.99;99106.17;84568;1332;25443;-71
2022/01/04 05:52:14;;;;;;;10.40;4.90;;;;;;;4.96;88.13;99100.96;84582;1331;22616;-71
2022/01/04 05:54:27;;;;;;;10.50;4.30;;;;;;;4.90;87.70;99097.58;84570;1332;22610;-71
2022/01/04 05:56:39;;;;;;;7.00;4.10;;;;;;;4.82;87.70;99093.17;84551;1328;22862;-71
2022/01/04 05:58:48;;;;;;;11.60;5.00;;;;;;;4.77;87.92;99091.83;84587;1333;23066;-71
2022/01/04 06:01:00;;;;;;;15.40;4.90;;;;;;;4.71;88.07;99096.52;84648;1334;24350;-74
2022/01/04 06:03:09;;;;;;;11.30;5.10;;;;;;;4.65;87.97;99103.60;84578;1331;22597;-74
2022/01/04 06:05:22;;;;;;;7.80;4.30;;;;;;;4.56;87.81;99098.23;84591;1329;22557;-75
2022/01/04 06:07:31;;;;;;;10.10;4.60;;;;;;;4.50;88.11;99092.23;84578;1330;22597;-74
2022/01/04 06:09:45;;;;;;;12.10;5.80;;;;;;;4.46;88.11;99089.42;84573;1328;23950;-74
2022/01/04 06:12:00;;;;;;;8.20;4.20;;;;;;;4.47;88.21;99088.70;84595;1328;23077;-74
2022/01/04 06:16:36;;;;;;;10.20;4.40;;;;;;;4.50;88.49;99081.85;84570;1330;23077;-72
2022/01/04 06:18:44;;;;;;;7.70;4.20;;;;;;;4.49;88.52;99080.50;84576;1335;25284;-71
2022/01/04 06:20:56;;;;;;;8.20;4.20;;;;;;;4.46;88.41;99087.17;84554;1330;22669;-72
2022/01/04 06:23:08;;;;;;;8.00;5.00;;;;;;;4.40;88.58;99091.16;84578;1334;22607;-71
2022/01/04 06:25:21;;;;;;;9.00;5.40;;;;;;;4.37;88.68;99089.18;84568;1332;24207;-74
2022/01/04 06:27:30;;;;;;;12.50;5.00;;;;;;;4.34;88.45;99087.38;84575;1330;22603;-74
2022/01/04 06:29:43;;;;;;;9.10;4.60;;;;;;;4.32;88.45;99088.84;84606;1327;22816;-72
2022/01/04 06:31:52;;;;;;;9.50;4.30;;;;;;;4.30;88.68;99088.58;84602;1330;22617;-72
2022/01/04 06:34:04;;;;;;;8.70;5.00;;;;;;;4.29;88.88;99086.52;84594;1328;23038;-71
2022/01/04 06:36:13;;;;;;;9.20;6.20;;;;;;;4.30;88.98;99082.35;84586;1329;23064;-73
2022/01/04 06:38:22;;;;;;;7.70;5.00;;;;;;;4.31;89.41;99080.09;84594;1327;22603;-72
2022/01/04 06:40:34;;;;;;;8.60;5.80;;;;;;;4.34;89.25;99078.94;84586;1330;22596;-71
2022/01/04 06:42:43;;;;;;;11.40;4.80;;;;;;;4.37;89.23;99076.77;84563;1332;22586;-71
2022/01/04 06:44:51;;;;;;;9.60;4.50;;;;;;;4.41;89.55;99076.80;84570;1330;24238;-71
2022/01/04 06:47:00;;;;;;;13.50;5.00;;;;;;;4.43;89.32;99081.56;84588;1329;23003;-73
2022/01/04 06:49:09;;;;;;;8.50;5.40;;;;;;;4.45;89.15;99082.55;84577;1335;22633;-71
2022/01/04 06:51:22;;;;;;;10.80;5.70;;;;;;;4.46;89.13;99089.75;84595;1326;22622;-70
2022/01/04 06:53:31;;;;;;;184.80;100.00;;;;;;;4.48;89.15;99096.77;84572;1329;22698;-71
2022/01/04 06:55:40;;;;;;;51.40;28.60;;;;;;;4.50;89.52;99094.29;84592;1329;23922;-74
2022/01/04 06:57:49;;;;;;;17.50;7.30;;;;;;;4.54;89.68;99093.64;84586;1332;25324;-74
2022/01/04 06:59:58;;;;;;;15.20;7.30;;;;;;;4.59;89.62;99087.06;84602;1330;22817;-71
2022/01/04 07:02:08;;;;;;;10.20;4.90;;;;;;;4.63;89.51;99085.02;84583;1334;23924;-71
2022/01/04 07:04:16;;;;;;;11.10;5.00;;;;;;;4.67;89.64;99079.36;84585;1330;25285;-70
2022/01/04 07:06:25;;;;;;;9.80;5.60;;;;;;;4.71;89.76;99075.60;84587;1335;25397;-74
2022/01/04 07:08:34;;;;;;;10.30;5.10;;;;;;;4.75;89.52;99073.38;84606;1329;22764;-74
2022/01/04 07:10:43;;;;;;;12.70;6.20;;;;;;;4.76;89.52;99069.71;84603;1332;22629;-70
2022/01/04 07:12:51;;;;;;;10.90;5.50;;;;;;;4.76;89.59;99068.34;84596;1327;22618;-71
2022/01/04 07:15:03;;;;;;;14.30;7.50;;;;;;;4.76;89.47;99070.74;84598;1330;22619;-75
2022/01/04 07:17:12;;;;;;;9.70;5.00;;;;;;;4.76;89.27;99065.77;84603;1328;22616;-74
2022/01/04 07:19:22;;;;;;;9.00;4.60;;;;;;;4.78;89.54;99059.80;84594;1328;22954;-75
2022/01/04 07:21:29;;;;;;;;;;;;;;;4.83;89.72;99060.83;84577;1329;22598;-74
2022/01/04 07:23:41;;;;;;;12.90;5.40;;;;;;;4.84;89.35;99064.94;84603;1333;22593;-73
2022/01/04 07:25:51;;;;;;;8.80;5.20;;;;;;;4.90;89.79;99062.14;84588;1332;22799;-74
2022/01/04 07:28:03;;;;;;;9.70;5.20;;;;;;;4.97;89.62;99054.11;84580;1330;22619;-74
2022/01/04 07:30:14;;;;;;;8.60;5.30;;;;;;;4.98;89.59;99057.70;84572;1330;22586;-70
2022/01/04 07:32:25;;;;;;;12.20;6.40;;;;;;;5.01;89.97;99060.36;84602;1328;23071;-72
2022/01/04 07:34:34;;;;;;;8.60;6.10;;;;;;;5.04;89.80;99062.70;84592;1330;23915;-73
2022/01/04 07:36:46;;;;;;;10.20;5.90;;;;;;;5.01;89.51;99054.83;84583;1331;24415;-70
2022/01/04 07:38:58;;;;;;;7.20;5.80;;;;;;;5.02;89.55;99048.73;84591;1330;22926;-72
2022/01/04 07:41:07;;;;;;;7.40;6.30;;;;;;;5.06;89.58;99045.13;84608;1330;22596;-72
2022/01/04 07:43:15;;;;;;;10.50;6.70;;;;;;;5.09;89.57;99045.39;84602;1332;22602;-72
2022/01/04 07:45:27;;;;;;;10.60;6.10;;;;;;;5.12;89.62;99045.08;84603;1331;22597;-74
2022/01/04 07:47:37;;;;;;;10.80;5.50;;;;;;;5.15;89.68;99042.39;84573;1330;22855;-74
2022/01/04 07:49:52;;;;;;;13.10;7.20;;;;;;;5.19;89.86;99044.33;84553;1327;22592;-72
2022/01/04 07:52:01;;;;;;;11.80;6.70;;;;;;;5.23;89.58;99036.42;84590;1333;25447;-71
2022/01/04 07:54:13;;;;;;;16.90;7.60;;;;;;;5.24;89.39;99039.11;84571;1330;22801;-72
2022/01/04 07:56:22;;;;;;;12.70;8.10;;;;;;;5.24;89.54;99041.52;84587;1332;24252;-72
2022/01/04 07:58:33;;;;;;;8.70;6.70;;;;;;;5.27;89.45;99040.58;84595;1332;25459;-71
2022/01/04 08:00:42;;;;;;;12.80;6.30;;;;;;;5.30;89.54;99035.42;84568;1332;22623;-71
2022/01/04 08:02:51;;;;;;;11.50;6.70;;;;;;;5.32;89.44;99032.77;84581;1330;22635;-74
2022/01/04 08:05:03;;;;;;;8.50;6.20;;;;;;;5.35;89.53;99023.82;84556;1326;22626;-71
2022/01/04 08:07:12;;;;;;;10.10;6.80;;;;;;;5.40;89.53;99018.80;84568;1332;22686;-71
2022/01/04 08:09:20;;;;;;;15.20;6.60;;;;;;;5.44;89.53;99020.20;84580;1331;24228;-70
2022/01/04 08:11:29;;;;;;;11.20;7.50;;;;;;;5.47;89.53;99016.09;84592;1331;25444;-74
2022/01/04 08:13:41;;;;;;;11.60;7.50;;;;;;;5.51;89.58;99015.43;84545;1331;22618;-75
2022/01/04 08:15:50;;;;;;;13.30;7.30;;;;;;;5.53;89.66;99013.29;84591;1331;22615;-71
2022/01/04 08:18:00;;;;;;;12.90;6.90;;;;;;;5.55;89.19;99008.86;84567;1332;22637;-70
2022/01/04 08:20:16;;;;;;;10.40;6.60;;;;;;;5.58;89.32;99004.79;84561;1331;24190;-71
2022/01/04 08:22:32;;;;;;;10.60;6.50;;;;;;;5.63;89.28;98994.20;84573;1327;22708;-70
2022/01/04 08:24:40;;;;;;;8.40;6.30;;;;;;;5.68;89.35;98986.02;84551;1332;22611;-71
2022/01/04 08:26:55;;;;;;;13.00;8.10;;;;;;;5.72;89.32;98980.50;84551;1330;25483;-71
2022/01/04 08:29:04;;;;;;;10.20;7.20;;;;;;;5.82;89.48;98978.92;84586;1332;22601;-73
2022/01/04 08:31:13;;;;;;;11.20;7.30;;;;;;;5.92;89.59;98965.34;84586;1332;24284;-71
2022/01/04 08:33:21;;;;;;;10.70;7.80;;;;;;;5.99;89.53;98964.58;84584;1330;22602;-72
2022/01/04 08:35:31;;;;;;;12.80;8.50;;;;;;;6.01;89.22;98967.94;83854;1330;1003021;-72
2022/01/04 08:37:40;;;;;;;11.80;7.20;;;;;;;6.05;89.12;98962.75;84599;1330;22612;-71
2022/01/04 08:39:58;;;;;;;11.00;7.00;;;;;;;6.10;89.14;98965.98;84592;1328;22573;-75
2022/01/04 08:42:10;;;;;;;10.90;6.90;;;;;;;6.16;88.95;98966.77;84588;1332;22604;-74
2022/01/04 08:44:20;;;;;;;11.00;7.10;;;;;;;6.23;88.93;98962.33;84592;1332;22632;-75
2022/01/04 08:46:29;;;;;;;8.90;7.10;;;;;;;6.28;88.85;98952.24;84601;1332;25634;-71
2022/01/04 08:48:38;;;;;;;11.80;7.60;;;;;;;6.33;88.93;98950.63;84578;1331;23879;-70
2022/01/04 08:50:50;;;;;;;12.30;7.50;;;;;;;6.36;88.84;98953.63;84592;1332;22693;-70
2022/01/04 08:53:02;;;;;;;12.10;8.00;;;;;;;6.39;88.66;98947.79;84583;1332;24245;-70
2022/01/04 08:55:12;;;;;;;10.10;7.00;;;;;;;6.41;88.48;98946.66;84553;1327;22599;-70
2022/01/04 08:57:22;;;;;;;10.20;7.20;;;;;;;6.45;88.38;98947.86;84575;1330;24087;-70
2022/01/04 08:59:37;;;;;;;12.50;6.90;;;;;;;6.47;88.15;98937.56;84602;1330;22601;-72
2022/01/04 09:01:50;;;;;;;11.30;6.80;;;;;;;6.47;87.87;98930.96;84578;1329;25444;-75
2022/01/04 09:04:01;;;;;;;11.70;7.60;;;;;;;6.47;88.12;98929.23;84607;1330;22597;-74
2022/01/04 09:06:15;;;;;;;11.50;7.00;;;;;;;6.52;88.22;98929.90;84599;1327;22586;-73
2022/01/04 09:08:28;;;;;;;9.40;7.30;;;;;;;6.54;88.07;98923.73;84589;1330;22619;-75
2022/01/04 09:10:40;;;;;;;11.70;7.00;;;;;;;6.55;87.89;98922.31;84596;1331;24284;-74
2022/01/04 09:13:04;;;;;;;13.90;7.00;;;;;;;6.58;88.13;98920.06;84573;1335;24254;-74
2022/01/04 09:20:12;;;;;;;;;;;;;;;6.85;87.88;98919.73;84627;1327;23045;-76
2022/01/04 09:22:24;;;;;;;12.10;6.60;;;;;;;6.85;87.64;98919.36;84586;1333;22671;-70
2022/01/04 09:24:37;;;;;;;8.60;6.20;;;;;;;6.86;87.18;98918.48;84595;1333;24264;-72
2022/01/04 09:26:49;;;;;;;11.50;7.10;;;;;;;6.85;86.85;98922.32;84582;1333;22619;-75
2022/01/04 09:29:00;;;;;;;8.90;7.20;;;;;;;6.83;87.10;98920.52;84570;1332;23978;-75
2022/01/04 09:31:13;;;;;;;12.30;6.80;;;;;;;6.83;86.85;98915.80;84582;1334;22626;-70
2022/01/04 09:33:25;;;;;;;11.00;5.80;;;;;;;6.85;86.97;98903.59;84593;1331;25328;-71
2022/01/04 09:35:37;;;;;;;11.20;6.60;;;;;;;6.90;86.60;98901.29;84584;1327;22803;-74
2022/01/04 09:37:47;;;;;;;11.20;6.20;;;;;;;6.94;86.82;98906.98;84569;1332;22654;-77
2022/01/04 09:39:56;;;;;;;9.90;6.30;;;;;;;7.01;86.82;98899.05;84577;1332;24256;-71
2022/01/04 09:42:07;;;;;;;9.90;7.00;;;;;;;7.05;86.73;98891.07;84566;1333;22566;-72
2022/01/04 09:44:17;;;;;;;12.40;7.80;;;;;;;7.07;86.82;98889.21;84572;1334;22593;-70
2022/01/04 09:46:28;;;;;;;9.90;6.50;;;;;;;7.10;86.53;98883.17;84607;1333;22634;-75
2022/01/04 09:48:38;;;;;;;8.70;6.60;;;;;;;7.14;86.28;98876.05;84593;1331;22868;-76
2022/01/04 09:50:51;;;;;;;10.40;6.50;;;;;;;7.18;85.95;98869.59;84578;1330;22628;-70
2022/01/04 09:53:01;;;;;;;8.40;6.10;;;;;;;7.21;86.04;98868.77;84535;1332;22602;-71
2022/01/04 09:55:12;;;;;;;12.50;7.60;;;;;;;7.23;85.90;98871.43;84553;1331;22668;-75
2022/01/04 09:57:27;;;;;;;9.40;6.60;;;;;;;7.27;85.77;98869.02;84583;1333;22700;-72
2022/01/04 09:59:36;;;;;;;9.80;6.70;;;;;;;7.28;85.77;98859.92;84614;1330;22589;-70
2022/01/04 10:01:50;;;;;;;9.20;6.70;;;;;;;7.31;85.61;98858.26;84573;1333;25289;-70
2022/01/04 10:04:02;;;;;;;12.50;7.50;;;;;;;7.31;85.47;98854.11;84538;1327;22815;-69
2022/01/04 10:06:20;;;;;;;10.80;7.50;;;;;;;7.30;85.33;98848.78;84582;1330;24233;-71
2022/01/04 10:08:29;;;;;;;9.50;6.20;;;;;;;7.31;85.39;98850.28;84585;1329;22625;-70
2022/01/04 10:10:38;;;;;;;9.20;6.30;;;;;;;7.31;85.07;98853.55;84571;1332;25317;-72
2022/01/04 10:12:55;;;;;;;9.20;6.00;;;;;;;7.33;85.22;98849.09;84575;1333;22844;-70
2022/01/04 10:15:17;;;;;;;11.70;6.40;;;;;;;7.36;85.25;98840.98;84601;1330;22594;-69
2022/01/04 10:17:35;;;;;;;11.80;7.20;;;;;;;7.37;85.02;98841.11;84595;1330;22615;-70
2022/01/04 10:19:49;;;;;;;10.70;6.70;;;;;;;7.36;85.02;98833.88;84593;1332;26628;-75
2022/01/04 10:22:23;;;;;;;8.80;7.10;;;;;;;7.34;84.64;98823.38;84565;1332;22661;-75
2022/01/04 10:24:32;;;;;;;9.20;7.20;;;;;;;7.29;84.56;98823.98;84560;1331;22596;-72
2022/01/04 10:26:41;;;;;;;9.40;6.40;;;;;;;7.27;84.71;98825.48;84586;1327;22674;-71